createdAt,value
2023-01-10T02:12:18.250Z,100.00
2023-01-10T02:13:28.140Z,100.00
2023-01-10T02:14:36.744Z,100.00
2023-01-10T02:15:41.556Z,100.00
2023-01-10T02:16:47.235Z,100.00
2023-01-10T02:17:53.217Z,100.00
2023-01-10T02:18:57.513Z,100.00
2023-01-10T02:20:04.587Z,100.00
2023-01-10T02:21:37.236Z,100.00
2023-01-10T02:23:07.592Z,100.00
2023-01-10T02:24:23.662Z,100.00
2023-01-10T02:25:59.033Z,100.00
2023-01-10T02:27:09.052Z,100.00
2023-01-10T02:28:33.980Z,100.00
2023-01-10T02:29:45.432Z,100.00
2023-01-10T02:31:16.570Z,100.00
2023-01-10T02:32:45.951Z,100.00
2023-01-10T02:37:02.561Z,100.00
2023-01-10T02:38:17.509Z,100.00
2023-01-10T02:39:42.312Z,100.00
2023-01-10T02:41:07.237Z,100.00
2023-01-10T02:42:23.004Z,100.00
2023-01-10T02:43:30.130Z,100.00
2023-01-10T02:44:41.545Z,100.00
2023-01-10T02:45:48.693Z,100.00
2023-01-10T02:46:52.899Z,100.00
2023-01-10T02:47:57.871Z,100.00
2023-01-10T02:49:03.371Z,100.00
2023-01-10T02:50:29.072Z,100.00
2023-01-10T02:51:40.649Z,100.00
2023-01-10T02:52:40.086Z,100.00
2023-01-10T02:53:47.423Z,100.00
2023-01-10T02:54:56.107Z,100.00
2023-01-10T02:56:07.334Z,100.00
2023-01-10T02:57:26.392Z,100.00
2023-01-10T02:58:51.188Z,100.00
2023-01-10T03:00:19.386Z,100.00
2023-01-10T03:02:03.123Z,100.00
2023-01-10T03:03:28.164Z,100.00
2023-01-10T03:04:57.764Z,100.00
2023-01-10T03:06:13.543Z,100.00
2023-01-10T03:07:53.703Z,100.00
2023-01-10T03:09:05.555Z,100.00
2023-01-10T03:10:30.837Z,100.00
2023-01-10T03:11:39.696Z,100.00
2023-01-10T03:14:36.457Z,100.00
2023-01-10T03:15:43.862Z,100.00
2023-01-10T03:17:04.733Z,100.00
2023-01-10T03:18:15.831Z,100.00
2023-01-10T03:19:25.647Z,100.00
2023-01-10T03:20:32.862Z,100.00
2023-01-10T03:21:39.525Z,100.00
2023-01-10T03:22:45.505Z,100.00
2023-01-10T03:23:52.590Z,100.00
2023-01-10T03:25:01.195Z,100.00
2023-01-10T03:26:08.397Z,100.00
2023-01-10T03:27:41.044Z,100.00
2023-01-10T03:28:55.567Z,100.00
2023-01-10T03:30:07.723Z,100.00
2023-01-10T03:31:20.858Z,100.00
2023-01-10T03:32:27.952Z,100.00
2023-01-10T03:33:37.340Z,100.00
2023-01-10T03:34:43.409Z,100.00
2023-01-10T03:36:01.805Z,100.00
2023-01-10T03:37:11.892Z,100.00
2023-01-10T03:38:31.009Z,100.00
2023-01-10T03:39:57.411Z,100.00
2023-01-10T03:41:06.093Z,100.00
2023-01-10T03:42:29.459Z,100.00
2023-01-10T03:43:40.615Z,100.00
2023-01-10T03:45:03.764Z,100.00
2023-01-10T03:46:14.178Z,100.00
2023-01-10T03:47:34.639Z,100.00
2023-01-10T03:48:42.089Z,100.00
2023-01-10T03:49:50.910Z,100.00
2023-01-10T03:50:59.173Z,100.00
2023-01-10T03:52:05.322Z,100.00
2023-01-10T03:53:09.390Z,100.00
2023-01-10T03:54:18.911Z,100.00
2023-01-10T03:55:25.607Z,100.00
2023-01-10T03:56:29.657Z,100.00
2023-01-10T03:57:33.735Z,100.00
2023-01-10T03:58:40.382Z,100.00
2023-01-10T03:59:48.748Z,100.00
2023-01-10T07:57:02.688Z,100.00
2023-01-10T07:58:08.171Z,100.00
2023-01-10T07:59:12.258Z,98.41
2023-01-10T08:00:18.967Z,98.64
2023-01-10T08:01:24.781Z,97.79
2023-01-10T08:02:29.317Z,97.32
2023-01-10T08:03:33.882Z,96.43
2023-01-10T08:04:37.916Z,96.63
2023-01-10T08:05:45.243Z,96.18
2023-01-10T08:06:50.844Z,96.18
2023-01-10T08:07:56.452Z,95.59
2023-01-10T08:09:00.539Z,95.10
2023-01-10T08:10:06.558Z,95.13
2023-01-10T08:11:12.001Z,95.67
2023-01-10T08:12:18.124Z,95.81
2023-01-10T08:13:22.336Z,95.38
2023-01-10T08:14:26.534Z,95.11
2023-01-10T08:15:32.695Z,94.56
2023-01-10T08:16:38.294Z,93.96
2023-01-10T08:17:42.371Z,93.30
2023-01-10T08:18:46.557Z,93.23
2023-01-10T08:19:50.753Z,92.81
2023-01-10T08:20:56.474Z,92.79
2023-01-10T08:22:00.749Z,92.82
2023-01-10T08:23:04.746Z,92.83
2023-01-10T08:24:08.946Z,92.83
2023-01-10T08:25:12.983Z,92.47
2023-01-10T08:26:18.227Z,92.70
2023-01-10T08:27:23.753Z,93.02
2023-01-10T08:28:28.480Z,92.87
2023-01-10T08:29:32.871Z,92.69
2023-01-10T08:30:37.469Z,92.24
2023-01-10T08:31:42.145Z,92.31
2023-01-10T08:32:46.263Z,91.80
2023-01-10T08:33:50.783Z,91.05
2023-01-10T08:34:54.879Z,90.96
2023-01-10T08:36:00.402Z,90.18
2023-01-10T08:37:04.495Z,90.15
2023-01-10T08:38:12.622Z,90.12
2023-01-10T08:39:16.726Z,89.78
2023-01-10T08:40:21.171Z,89.53
2023-01-10T08:41:25.135Z,90.18
2023-01-10T08:42:35.820Z,90.55
2023-01-10T08:43:35.038Z,90.51
2023-01-10T08:44:39.089Z,90.51
2023-01-10T08:45:43.144Z,91.22
2023-01-10T08:46:47.343Z,90.35
2023-01-10T08:47:51.302Z,90.48
2023-01-10T08:48:55.344Z,90.19
2023-01-10T08:49:59.270Z,89.49
2023-01-10T08:51:08.682Z,89.11
2023-01-10T08:52:13.028Z,89.52
2023-01-10T08:53:17.054Z,90.10
2023-01-10T08:54:21.010Z,88.86
2023-01-10T08:55:25.552Z,88.95
2023-01-10T08:56:29.745Z,89.30
2023-01-10T08:57:37.936Z,89.04
2023-01-10T08:58:41.979Z,89.19
2023-01-10T08:59:46.128Z,89.92
2023-01-10T09:00:50.326Z,89.05
2023-01-10T09:01:54.366Z,88.72
2023-01-10T09:02:58.806Z,89.00
2023-01-10T09:04:02.916Z,89.30
2023-01-10T09:05:15.075Z,89.50
2023-01-10T09:06:13.960Z,89.35
2023-01-10T09:07:18.027Z,89.35
2023-01-10T09:08:22.037Z,89.00
2023-01-10T09:09:25.979Z,89.08
2023-01-10T09:10:30.903Z,88.79
2023-01-10T09:11:34.907Z,87.81
2023-01-10T09:12:39.001Z,87.81
2023-01-10T09:13:42.956Z,87.67
2023-01-10T09:14:46.914Z,87.45
2023-01-10T09:15:52.807Z,87.33
2023-01-10T09:16:57.167Z,87.33
2023-01-10T09:18:04.205Z,88.31
2023-01-10T09:19:08.718Z,88.71
2023-01-10T09:20:12.896Z,87.83
2023-01-10T09:21:16.921Z,88.07
2023-01-10T09:22:20.913Z,87.68
2023-01-10T09:23:25.963Z,87.31
2023-01-10T09:24:31.516Z,88.22
2023-01-10T09:25:35.944Z,88.01
2023-01-10T09:26:39.943Z,87.81
2023-01-10T09:27:43.956Z,87.81
2023-01-10T09:28:50.445Z,87.70
2023-01-10T09:29:53.672Z,87.02
2023-01-10T09:30:57.620Z,87.49
2023-01-10T09:32:02.804Z,87.49
2023-01-10T09:33:07.341Z,87.54
2023-01-10T09:34:20.679Z,87.76
2023-01-10T09:35:30.552Z,88.43
2023-01-10T09:36:34.694Z,87.88
2023-01-10T09:37:38.603Z,87.36
2023-01-10T09:38:42.458Z,87.17
2023-01-10T09:39:46.425Z,87.16
2023-01-10T09:41:02.439Z,86.51
2023-01-10T09:42:18.217Z,86.91
2023-01-10T09:43:45.100Z,87.10
2023-01-10T09:45:08.603Z,87.02
2023-01-10T09:46:30.847Z,87.31
2023-01-10T09:47:57.621Z,87.43
2023-01-10T09:49:13.154Z,87.02
2023-01-10T09:50:20.205Z,87.02
2023-01-10T09:51:45.162Z,86.45
2023-01-10T09:52:52.344Z,85.37
2023-01-10T09:54:10.627Z,85.51
2023-01-10T09:55:25.580Z,85.51
2023-01-10T09:56:33.935Z,85.27
2023-01-10T09:57:39.601Z,85.36
2023-01-10T09:58:47.970Z,85.23
2023-01-10T09:59:53.763Z,85.32
2023-01-10T10:01:00.608Z,85.03
2023-01-10T10:02:22.726Z,85.58
2023-01-10T10:03:50.109Z,85.87
2023-01-10T10:05:07.624Z,86.10
2023-01-10T10:06:15.778Z,85.42
2023-01-10T10:07:19.806Z,85.51
2023-01-10T10:10:55.403Z,84.91
2023-01-10T10:12:13.328Z,85.28
2023-01-10T10:13:27.012Z,85.22
2023-01-10T10:14:31.516Z,85.17
2023-01-10T10:15:51.780Z,85.51
2023-01-10T10:17:29.231Z,86.10
2023-01-10T10:18:48.288Z,86.03
2023-01-10T10:20:01.261Z,85.93
2023-01-10T10:21:08.291Z,85.67
2023-01-10T10:22:21.279Z,85.64
2023-01-10T10:23:43.371Z,85.25
2023-01-10T10:25:08.141Z,85.25
2023-01-10T10:26:24.053Z,85.40
2023-01-10T10:27:33.616Z,84.80
2023-01-10T10:28:55.104Z,85.06
2023-01-10T10:30:26.531Z,85.06
2023-01-10T10:31:33.607Z,85.03
2023-01-10T10:32:46.785Z,85.52
2023-01-10T10:34:13.246Z,85.32
2023-01-10T10:37:17.648Z,85.20
2023-01-10T10:38:27.544Z,85.15
2023-01-10T10:39:43.592Z,84.78
2023-01-10T10:40:49.330Z,85.12
2023-01-10T10:41:55.564Z,85.46
2023-01-10T10:43:02.610Z,83.66
2023-01-10T10:44:41.098Z,83.98
2023-01-10T10:45:57.095Z,83.30
2023-01-10T10:47:02.169Z,83.46
2023-01-10T10:48:28.408Z,84.15
2023-01-10T10:49:58.045Z,83.96
2023-01-10T10:51:07.081Z,83.58
2023-01-10T10:52:26.040Z,83.44
2023-01-10T10:53:34.977Z,83.49
2023-01-10T10:54:38.031Z,83.99
2023-01-10T10:55:43.645Z,84.06
2023-01-10T10:56:48.079Z,83.33
2023-01-10T10:58:00.531Z,83.33
2023-01-10T10:59:01.051Z,83.23
2023-01-10T11:00:07.593Z,83.63
2023-01-10T11:01:16.658Z,83.56
2023-01-10T11:02:23.740Z,83.52
2023-01-10T11:03:39.636Z,83.70
2023-01-10T11:04:43.834Z,83.47
2023-01-10T11:05:49.327Z,83.66
2023-01-10T11:06:54.656Z,83.27
2023-01-10T11:08:01.665Z,83.13
2023-01-10T11:09:06.897Z,83.97
2023-01-10T11:10:13.995Z,83.19
2023-01-10T11:11:26.653Z,83.17
2023-01-10T11:12:35.992Z,82.34
2023-01-10T11:13:47.499Z,81.17
2023-01-10T11:14:53.044Z,81.68
2023-01-10T11:15:57.769Z,81.60
2023-01-10T11:17:24.179Z,81.60
2023-01-10T11:18:30.684Z,81.70
2023-01-10T11:19:34.723Z,81.14
2023-01-10T11:20:50.432Z,81.13
2023-01-10T11:21:57.566Z,81.54
2023-01-10T11:23:01.677Z,81.65
2023-01-10T11:24:06.134Z,81.65
2023-01-10T11:25:20.505Z,81.39
2023-01-10T11:26:39.372Z,81.70
2023-01-10T11:27:55.201Z,81.70
2023-01-10T11:29:11.172Z,82.28
2023-01-10T11:30:26.958Z,82.36
2023-01-10T11:31:31.564Z,82.40
2023-01-10T11:32:41.079Z,81.86
2023-01-10T11:33:48.249Z,81.61
2023-01-10T11:34:58.121Z,80.74
2023-01-10T11:36:10.573Z,79.95
2023-01-10T11:37:23.699Z,79.94
2023-01-10T11:38:27.916Z,79.43
2023-01-10T11:39:33.171Z,79.61
2023-01-10T11:40:37.397Z,79.89
2023-01-10T11:41:43.196Z,79.38
2023-01-10T11:42:48.003Z,79.58
2023-01-10T11:43:51.949Z,79.29
2023-01-10T11:45:13.907Z,79.27
2023-01-10T11:46:21.186Z,79.01
2023-01-10T11:47:26.525Z,78.63
2023-01-10T11:49:08.435Z,79.34
2023-01-10T11:49:58.223Z,79.04
2023-01-10T11:51:02.337Z,78.72
2023-01-10T11:52:09.224Z,79.16
2023-01-10T11:53:33.923Z,79.16
2023-01-10T11:54:44.436Z,78.88
2023-01-10T11:55:49.499Z,79.58
2023-01-10T11:57:11.131Z,79.42
2023-01-10T11:58:15.829Z,79.09
2023-01-10T11:59:20.175Z,79.21
2023-01-10T12:00:27.238Z,79.70
2023-01-10T12:01:43.004Z,80.15
2023-01-10T12:02:47.316Z,80.07
2023-01-10T12:03:51.292Z,80.29
2023-01-10T12:05:00.323Z,80.58
2023-01-10T12:06:09.730Z,80.22
2023-01-10T12:07:14.122Z,80.00
2023-01-10T12:08:31.273Z,79.65
2023-01-10T12:09:47.368Z,80.12
2023-01-10T12:10:59.951Z,79.39
2023-01-10T12:12:08.216Z,79.22
2023-01-10T12:13:17.134Z,79.22
2023-01-10T16:42:13.095Z,64.81
2023-01-10T16:43:20.066Z,64.95
2023-01-10T16:44:24.235Z,65.04
2023-01-10T16:45:29.334Z,64.25
2023-01-10T16:46:33.404Z,64.97
2023-01-10T16:47:37.501Z,64.97
2023-01-10T16:48:41.526Z,64.66
2023-01-10T16:49:45.540Z,64.34
2023-01-10T16:50:51.336Z,64.53
2023-01-10T16:51:55.748Z,64.39
2023-01-10T16:53:00.240Z,64.83
2023-01-10T16:54:04.393Z,63.88
2023-01-10T16:55:14.701Z,63.65
2023-01-10T16:56:22.060Z,63.65
2023-01-10T16:57:27.986Z,64.19
2023-01-10T16:58:31.631Z,64.40
2023-01-10T16:59:38.287Z,64.64
2023-01-10T17:00:45.044Z,64.46
2023-01-10T17:01:57.882Z,64.46
2023-01-10T17:03:08.006Z,64.64
2023-01-10T17:04:15.297Z,64.75
2023-01-10T17:05:22.407Z,64.75
2023-01-10T17:06:26.515Z,64.65
2023-01-10T17:07:30.715Z,64.79
2023-01-10T17:08:34.741Z,64.04
2023-01-10T17:09:38.780Z,64.04
2023-01-10T17:10:43.948Z,64.09
2023-01-10T17:11:49.691Z,64.10
2023-01-10T17:12:55.564Z,63.86
2023-01-10T17:14:00.797Z,63.87
2023-01-10T17:15:08.549Z,64.39
2023-01-10T17:16:13.513Z,64.39
2023-01-10T17:17:17.567Z,63.90
2023-01-10T17:18:21.691Z,64.17
2023-01-10T17:19:25.751Z,63.94
2023-01-10T17:20:29.946Z,63.94
2023-01-10T17:21:35.388Z,64.18
2023-01-10T17:22:39.629Z,64.07
2023-01-10T17:23:43.717Z,64.68
2023-01-10T17:24:47.959Z,64.68
2023-01-10T17:26:00.404Z,64.67
2023-01-10T17:27:06.047Z,64.19
2023-01-10T17:28:12.703Z,64.06
2023-01-10T17:29:20.172Z,64.22
2023-01-10T17:30:23.953Z,64.05
2023-01-10T17:31:29.295Z,63.84
2023-01-10T17:32:33.849Z,63.90
2023-01-10T17:33:38.040Z,63.39
2023-01-10T17:34:42.040Z,63.44
2023-01-10T17:35:46.327Z,63.66
2023-01-10T17:36:50.501Z,63.35
2023-01-10T17:37:55.090Z,63.33
2023-01-10T17:39:00.786Z,63.61
2023-01-10T17:40:06.082Z,63.41
2023-01-10T17:41:10.433Z,64.09
2023-01-10T17:42:18.141Z,63.75
2023-01-10T17:43:22.125Z,63.58
2023-01-10T17:44:26.101Z,63.33
2023-01-10T17:45:30.065Z,63.33
2023-01-10T17:46:34.271Z,62.65
2023-01-10T17:47:38.379Z,63.16
2023-01-10T17:48:42.319Z,63.14
2023-01-10T17:49:48.968Z,62.98
2023-01-10T17:51:00.765Z,63.57
2023-01-10T17:52:05.019Z,63.52
2023-01-10T17:53:09.060Z,63.68
2023-01-10T17:54:13.053Z,63.11
2023-01-10T17:55:18.647Z,63.11
2023-01-10T17:56:24.197Z,63.01
2023-01-10T17:57:28.155Z,62.79
2023-01-10T17:58:32.031Z,62.75
2023-01-10T17:59:36.374Z,63.30
2023-01-10T18:00:40.413Z,63.07
2023-01-10T18:01:46.523Z,62.65
2023-01-10T18:02:58.344Z,62.65
2023-01-10T18:03:57.318Z,62.50
2023-01-10T18:05:01.328Z,62.73
2023-01-10T18:06:07.680Z,62.16
2023-01-10T18:07:13.159Z,62.16
2023-01-10T18:08:24.854Z,61.97
2023-01-10T18:09:32.321Z,61.61
2023-01-10T18:10:37.959Z,61.66
2023-01-10T18:11:41.954Z,61.42
2023-01-10T18:12:45.926Z,61.67
2023-01-10T18:13:50.186Z,61.67
2023-01-10T18:14:57.363Z,61.92
2023-01-10T18:16:01.474Z,61.92
2023-01-10T18:17:11.285Z,62.25
2023-01-10T18:18:16.435Z,61.97
2023-01-10T18:19:20.414Z,61.85
2023-01-10T18:20:27.112Z,62.58
2023-01-10T18:21:32.734Z,62.58
2023-01-10T18:22:37.897Z,64.29
2023-01-10T18:23:43.337Z,62.57
2023-01-10T18:24:47.496Z,62.57
2023-01-10T18:26:01.632Z,63.08
2023-01-10T18:27:05.809Z,63.08
2023-01-10T18:28:09.818Z,63.42
2023-01-10T18:29:16.396Z,62.80
2023-01-10T18:30:20.860Z,63.29
2023-01-10T18:31:25.401Z,63.94
2023-01-10T18:32:29.595Z,63.62
2023-01-10T18:33:33.841Z,63.68
2023-01-10T18:34:37.875Z,64.65
2023-01-10T18:35:41.881Z,64.32
2023-01-10T18:36:48.637Z,64.32
2023-01-10T18:37:52.798Z,64.73
2023-01-10T18:39:01.136Z,65.35
2023-01-10T18:40:04.731Z,65.52
2023-01-10T18:41:09.336Z,65.60
2023-01-10T18:42:17.802Z,65.60
2023-01-10T18:43:27.704Z,65.94
2023-01-10T18:44:32.029Z,65.94
2023-01-10T18:45:37.663Z,66.16
2023-01-10T18:46:41.765Z,65.91
2023-01-10T18:47:48.750Z,65.89
2023-01-10T18:48:53.547Z,66.65
2023-01-10T18:49:57.644Z,67.54
2023-01-10T18:51:04.204Z,67.69
2023-01-10T18:52:08.638Z,68.37
2023-01-10T18:53:14.260Z,69.02
2023-01-10T18:54:18.467Z,70.44
2023-01-10T18:55:22.782Z,71.76
2023-01-10T18:56:27.144Z,71.76
2023-01-10T18:57:31.621Z,77.39
2023-01-10T18:58:38.934Z,77.92
2023-01-10T18:59:44.450Z,78.80
2023-01-10T19:00:50.470Z,80.52
2023-01-10T19:01:54.881Z,81.28
2023-01-10T19:03:02.492Z,81.28
2023-01-10T19:04:06.866Z,84.42
2023-01-10T19:05:11.297Z,84.72
2023-01-10T19:06:17.934Z,84.72
2023-01-10T19:07:22.283Z,85.15
2023-01-10T19:08:26.501Z,84.94
2023-01-10T19:09:32.310Z,85.04
2023-01-10T19:10:57.341Z,85.73
2023-01-10T19:11:42.777Z,87.45
2023-01-10T19:12:46.937Z,87.86
2023-01-10T19:13:53.278Z,88.54
2023-01-10T19:14:59.196Z,89.34
2023-01-10T19:16:18.413Z,89.49
2023-01-10T19:17:22.787Z,90.40
2023-01-10T19:18:27.159Z,90.26
2023-01-10T19:19:31.605Z,90.26
2023-01-10T19:20:36.053Z,90.56
2023-01-10T19:21:40.354Z,91.03
2023-01-10T19:22:46.860Z,90.89
2023-01-10T19:23:55.540Z,90.53
2023-01-10T19:24:59.986Z,90.53
2023-01-10T19:26:04.330Z,90.10
2023-01-10T19:27:10.972Z,90.19
2023-01-10T19:28:16.730Z,90.57
2023-01-10T19:29:23.127Z,91.14
2023-01-10T19:30:29.771Z,91.14
2023-01-10T19:31:36.668Z,92.47
2023-01-10T19:32:44.817Z,92.47
2023-01-10T19:33:53.494Z,91.82
2023-01-10T19:34:57.852Z,91.26
2023-01-10T19:36:07.174Z,90.63
2023-01-10T19:37:11.662Z,90.86
2023-01-10T19:38:24.691Z,90.86
2023-01-10T19:39:29.169Z,91.00
2023-01-10T19:40:34.921Z,90.96
2023-01-10T19:41:40.082Z,90.96
2023-01-10T19:42:47.512Z,88.67
2023-01-10T19:43:56.923Z,89.19
2023-01-10T19:45:01.206Z,89.19
2023-01-10T19:46:09.784Z,88.31
2023-01-10T19:47:14.140Z,88.69
2023-01-10T19:48:18.471Z,89.09
2023-01-10T19:49:22.869Z,89.00
2023-01-10T19:50:28.429Z,89.88
2023-01-10T19:51:32.727Z,89.39
2023-01-10T19:52:37.016Z,89.42
2023-01-10T19:53:43.275Z,89.42
2023-01-10T19:54:48.877Z,89.16
2023-01-10T19:56:04.891Z,87.67
2023-01-10T19:57:09.305Z,86.88
2023-01-10T19:58:13.648Z,86.81
